Pittsburgh, Pennsylvania
Traffic Map
Current Weather Conditions
Pittsburgh, Pennsylvania
Overcast
Overcast

Feels Like: 2°
Wind Chill: Ceiling: 2100
Heat Index: Visibility: 10mi
Dew Point: Wind: 9mph
Humidity: 70% Direction: 320° (NW)
Pressure: 29.88in Gusts: 17mph
Raw Report DataKAGC 231053Z AUTO 32008G15KT 10SM BKN021 OVC031 05/00 A2988 RMK AO2 SLP125 T00500000 TSNO
Traffic Incident Summary
Active as of:
Severity:
Category:
InformationThere was an issue retrieving the traffic information for this location. Please try a different location or try again shortly.
Advertisements
At Last! Intellicast now available for iPhone and Android